createdAt,value
2022-12-04T00:01:20.316Z,95.30
2022-12-04T00:06:20.386Z,95.86
2022-12-04T00:11:20.528Z,95.85
2022-12-04T00:16:20.648Z,95.34
2022-12-04T00:21:20.494Z,94.88
2022-12-04T00:26:20.647Z,96.31
2022-12-04T00:31:20.505Z,95.90
2022-12-04T00:36:20.588Z,95.90
2022-12-04T00:41:20.437Z,95.72
2022-12-04T00:46:20.691Z,95.70
2022-12-04T00:51:20.339Z,95.97
2022-12-04T00:56:20.549Z,96.07
2022-12-04T01:01:20.556Z,96.07
2022-12-04T01:06:20.332Z,96.69
2022-12-04T01:11:20.651Z,97.72
2022-12-04T01:16:20.496Z,96.57
2022-12-04T01:21:20.372Z,96.51
2022-12-04T01:26:20.339Z,96.36
2022-12-04T01:31:20.455Z,96.01
2022-12-04T01:36:20.337Z,96.01
2022-12-04T01:41:20.385Z,96.20
2022-12-04T01:46:20.445Z,95.91
2022-12-04T01:51:20.522Z,96.10
2022-12-04T01:56:20.650Z,96.77
2022-12-04T02:01:20.529Z,96.55
2022-12-04T02:06:20.646Z,96.50
2022-12-04T02:11:20.436Z,96.50
2022-12-04T02:16:20.418Z,95.79
2022-12-04T02:21:20.425Z,95.92
2022-12-04T02:26:20.360Z,96.14
2022-12-04T02:31:20.558Z,96.23
2022-12-04T02:36:20.357Z,96.26
2022-12-04T02:41:20.697Z,96.62
2022-12-04T02:46:20.648Z,96.72
2022-12-04T02:51:20.640Z,96.72
2022-12-04T02:56:20.369Z,97.11
2022-12-04T03:01:20.856Z,97.36
2022-12-04T03:06:20.473Z,97.84
2022-12-04T03:11:20.580Z,97.84
2022-12-04T03:16:20.398Z,98.11
2022-12-04T03:21:20.579Z,97.88
2022-12-04T03:26:20.700Z,97.66
2022-12-04T03:31:20.543Z,98.01
2022-12-04T03:36:20.494Z,97.68
2022-12-04T03:41:20.428Z,98.11
2022-12-04T03:46:20.732Z,97.79
2022-12-04T03:51:20.444Z,98.29
2022-12-04T03:56:20.429Z,98.07
2022-12-04T04:01:20.581Z,98.07
2022-12-04T04:06:20.598Z,99.67
2022-12-04T04:11:20.738Z,99.26
2022-12-04T04:16:20.417Z,99.46
2022-12-04T04:21:20.408Z,100.00
2022-12-04T04:26:20.414Z,100.00
2022-12-04T04:31:20.491Z,100.00
2022-12-04T04:36:20.411Z,100.00
2022-12-04T04:41:20.416Z,100.00
2022-12-04T04:46:20.497Z,100.00
2022-12-04T04:51:20.587Z,100.00
2022-12-04T04:56:20.727Z,100.00
2022-12-04T05:01:20.548Z,100.00
2022-12-04T05:06:20.720Z,100.00
2022-12-04T05:11:20.560Z,100.00
2022-12-04T05:16:20.793Z,99.48
2022-12-04T05:21:20.401Z,99.58
2022-12-04T05:26:20.670Z,99.58
2022-12-04T05:31:20.548Z,99.46
2022-12-04T05:36:20.647Z,99.62
2022-12-04T05:41:20.441Z,100.00
2022-12-04T05:46:20.661Z,100.00
2022-12-04T05:51:20.750Z,100.00
2022-12-04T05:56:20.539Z,100.00
2022-12-04T06:01:20.424Z,100.00
2022-12-04T06:06:22.188Z,100.00
2022-12-04T06:11:20.670Z,100.00
2022-12-04T06:16:20.549Z,100.00
2022-12-04T06:21:20.658Z,100.00
2022-12-04T06:26:20.457Z,100.00
2022-12-04T06:31:20.964Z,100.00
2022-12-04T06:36:20.510Z,100.00
2022-12-04T06:41:20.602Z,100.00
2022-12-04T06:46:20.551Z,100.00
2022-12-04T06:51:20.568Z,100.00
2022-12-04T06:56:20.462Z,100.00
2022-12-04T07:01:20.506Z,100.00
2022-12-04T07:06:20.478Z,100.00
2022-12-04T07:11:20.426Z,100.00
2022-12-04T07:16:20.718Z,100.00
2022-12-04T07:21:20.794Z,100.00
2022-12-04T07:26:20.476Z,100.00
2022-12-04T07:31:20.803Z,100.00
2022-12-04T07:36:20.548Z,99.11
2022-12-04T07:41:20.732Z,98.15
2022-12-04T07:46:20.553Z,98.65
2022-12-04T07:51:20.704Z,98.65
2022-12-04T07:56:20.480Z,96.84
2022-12-04T08:01:20.791Z,95.94
2022-12-04T08:06:20.786Z,94.94
2022-12-04T08:11:20.652Z,94.94
2022-12-04T08:16:20.828Z,93.78
2022-12-04T08:21:20.613Z,93.72
2022-12-04T08:26:20.759Z,92.84
2022-12-04T08:31:20.632Z,92.15
2022-12-04T08:36:20.731Z,91.58
2022-12-04T08:41:20.498Z,90.93
2022-12-04T08:46:20.757Z,89.25
2022-12-04T08:51:20.487Z,87.70
2022-12-04T08:56:20.638Z,87.04
2022-12-04T09:01:21.064Z,87.34
2022-12-04T09:06:20.844Z,87.07
2022-12-04T09:11:21.002Z,87.07
2022-12-04T09:16:20.633Z,89.23
2022-12-04T09:21:20.925Z,88.55
2022-12-04T09:26:20.836Z,88.45
2022-12-04T09:31:21.093Z,87.26
2022-12-04T09:36:21.024Z,87.36
2022-12-04T09:41:20.516Z,88.03
2022-12-04T09:46:21.347Z,86.92
2022-12-04T09:51:20.522Z,85.84
2022-12-04T09:56:20.759Z,85.38
2022-12-04T10:01:20.848Z,85.17
2022-12-04T10:06:20.791Z,85.17
2022-12-04T10:11:20.848Z,84.87
2022-12-04T10:16:20.820Z,83.28
2022-12-04T10:21:21.040Z,83.28
2022-12-04T10:26:20.835Z,84.01
2022-12-04T10:31:20.931Z,83.69
2022-12-04T10:36:20.629Z,82.52
2022-12-04T10:41:20.791Z,82.50
2022-12-04T10:46:20.755Z,82.52
2022-12-04T10:51:21.021Z,82.52
2022-12-04T10:56:20.567Z,81.47
2022-12-04T11:01:20.632Z,81.30
2022-12-04T11:06:20.904Z,79.68
2022-12-04T11:11:20.733Z,79.84
2022-12-04T11:16:21.112Z,79.84
2022-12-04T11:21:20.845Z,79.33
2022-12-04T11:26:20.830Z,79.33
2022-12-04T11:31:20.756Z,79.33
2022-12-04T11:36:20.811Z,78.97
2022-12-04T11:41:20.616Z,78.84
2022-12-04T11:46:21.096Z,79.78
2022-12-04T11:51:21.147Z,79.78
2022-12-04T11:56:21.335Z,80.27
2022-12-04T12:01:21.200Z,80.17
2022-12-04T12:06:20.711Z,80.01
2022-12-04T12:11:20.849Z,79.56
2022-12-04T12:16:20.738Z,77.43
2022-12-04T12:21:20.593Z,76.81
2022-12-04T12:31:20.648Z,75.87
2022-12-04T12:36:20.850Z,75.54
2022-12-04T12:41:20.847Z,75.52
2022-12-04T12:46:20.982Z,75.03
2022-12-04T12:51:30.518Z,75.03
2022-12-04T12:56:21.147Z,74.59
2022-12-04T13:01:20.938Z,74.46
2022-12-04T13:06:20.857Z,74.71
2022-12-04T13:11:20.637Z,74.68
2022-12-04T13:16:20.870Z,74.27
2022-12-04T13:21:20.596Z,74.27
2022-12-04T13:31:21.255Z,73.94
2022-12-04T13:36:20.717Z,73.69
2022-12-04T13:41:20.632Z,73.69
2022-12-04T13:46:20.764Z,73.76
2022-12-04T13:51:20.736Z,74.48
2022-12-04T13:56:20.649Z,75.20
2022-12-04T14:01:20.992Z,75.20
2022-12-04T14:06:20.642Z,76.41
2022-12-04T14:11:20.916Z,77.06
2022-12-04T14:16:20.995Z,77.70
2022-12-04T14:21:20.938Z,77.70
2022-12-04T14:26:20.915Z,78.13
2022-12-04T14:31:21.044Z,79.43
2022-12-04T14:36:20.940Z,79.92
2022-12-04T14:41:20.627Z,79.92
2022-12-04T14:46:20.924Z,81.12
2022-12-04T14:51:20.648Z,81.67
2022-12-04T14:56:21.003Z,81.67
2022-12-04T15:01:25.315Z,82.59
2022-12-04T15:06:20.949Z,82.59
2022-12-04T15:11:20.938Z,82.96
2022-12-04T15:16:21.762Z,84.17
2022-12-04T15:21:21.078Z,84.68
2022-12-04T15:26:20.736Z,84.80
2022-12-04T15:31:20.981Z,85.19
2022-12-04T15:36:20.947Z,85.19
2022-12-04T15:41:22.819Z,85.67
2022-12-04T15:46:21.299Z,86.23
2022-12-04T15:51:20.872Z,86.83
2022-12-04T15:56:21.465Z,87.01
2022-12-04T16:01:22.934Z,87.20
2022-12-04T16:06:20.689Z,87.20
2022-12-04T16:11:20.913Z,88.34
2022-12-04T16:16:21.051Z,88.34
2022-12-04T16:21:20.717Z,88.31
2022-12-04T16:26:20.933Z,88.31
2022-12-04T16:31:21.000Z,88.01
2022-12-04T16:36:20.948Z,88.04
2022-12-04T16:41:21.260Z,87.91
2022-12-04T16:46:21.109Z,87.15
2022-12-04T16:51:21.242Z,86.13
2022-12-04T16:56:21.033Z,85.27
2022-12-04T17:01:20.989Z,85.27
2022-12-04T17:06:20.995Z,84.09
2022-12-04T17:11:20.891Z,83.67
2022-12-04T17:16:21.157Z,83.87
2022-12-04T17:21:20.884Z,84.40
2022-12-04T17:26:21.250Z,84.40
2022-12-04T17:31:21.176Z,86.15
2022-12-04T17:36:21.160Z,86.85
2022-12-04T17:41:20.975Z,86.97
2022-12-04T17:46:21.694Z,87.03
2022-12-04T17:51:20.846Z,87.21
2022-12-04T17:56:21.142Z,87.21
2022-12-04T18:01:21.088Z,88.08
2022-12-04T18:06:21.734Z,88.12
2022-12-04T18:11:21.214Z,88.12
2022-12-04T18:16:21.386Z,88.88
2022-12-04T18:21:21.151Z,88.94
2022-12-04T18:26:21.072Z,89.33
2022-12-04T18:31:22.343Z,89.49
2022-12-04T18:36:21.020Z,89.67
2022-12-04T18:41:20.984Z,90.04
2022-12-04T18:46:21.038Z,90.04
2022-12-04T18:51:21.993Z,90.32
2022-12-04T19:01:21.288Z,90.45
2022-12-04T19:11:21.375Z,90.81
2022-12-04T19:16:21.043Z,90.50
2022-12-04T19:21:21.168Z,90.50
2022-12-04T19:26:21.401Z,90.50
2022-12-04T19:31:21.647Z,90.79
2022-12-04T19:36:21.323Z,91.38
2022-12-04T19:41:21.435Z,92.20
2022-12-04T19:46:21.489Z,92.20
2022-12-04T19:51:21.097Z,92.68
2022-12-04T19:56:21.358Z,92.70
2022-12-04T20:06:23.290Z,92.91
2022-12-04T20:11:21.331Z,92.91
2022-12-04T20:16:21.016Z,92.63
2022-12-04T20:21:20.794Z,92.10
2022-12-04T20:26:21.861Z,92.56
2022-12-04T20:31:21.115Z,92.98
2022-12-04T20:36:21.362Z,93.21
2022-12-04T20:41:21.214Z,93.74
2022-12-04T20:46:21.442Z,93.87
2022-12-04T20:56:21.096Z,93.99
2022-12-04T21:01:21.300Z,94.42
2022-12-04T21:06:21.147Z,94.60
2022-12-04T21:11:20.810Z,94.60
2022-12-04T21:16:21.103Z,94.37
2022-12-04T21:21:20.788Z,93.88
2022-12-04T21:26:20.868Z,93.31
2022-12-04T21:31:21.169Z,93.22
2022-12-04T21:36:20.807Z,93.22
2022-12-04T21:41:20.985Z,92.70
2022-12-04T21:46:20.830Z,92.28
2022-12-04T21:51:40.213Z,92.26
2022-12-04T21:56:20.804Z,92.35
2022-12-04T22:06:20.825Z,92.58
2022-12-04T22:11:20.912Z,92.53
2022-12-04T22:21:21.157Z,92.80
2022-12-04T22:26:21.025Z,92.80
2022-12-04T22:31:21.282Z,93.75
2022-12-04T22:36:20.968Z,93.20
2022-12-04T22:41:20.842Z,93.92
2022-12-04T22:46:21.002Z,93.92
2022-12-04T22:51:20.839Z,93.59
2022-12-04T22:56:20.843Z,93.96
2022-12-04T23:01:20.854Z,93.90
2022-12-04T23:06:20.861Z,93.90
2022-12-04T23:11:20.819Z,94.43
2022-12-04T23:16:20.963Z,94.60
2022-12-04T23:21:20.982Z,94.59
2022-12-04T23:26:21.119Z,94.62
2022-12-04T23:31:20.904Z,95.04
2022-12-04T23:36:21.119Z,94.69
2022-12-04T23:41:20.920Z,94.61
2022-12-04T23:46:20.942Z,94.49
2022-12-04T23:51:20.902Z,93.89
2022-12-04T23:56:21.042Z,94.23
